This is the latest recevied weather packets stored in our database for station/object KJ7IVE-13. If no packets are shown the sender has not sent any weather packets the latest 1 day(s).
| Time | Temp. | Humidity | Pressure | Rain* | Wind** | Luminosity | Snow |
|---|---|---|---|---|---|---|---|
| 1778012255 | 11.67° C | 10% | 1012 hPa | 0 mm | 4.92 m/s, 71° | 201 W/m² | - |
| 1778011953 | 11.67° C | 10% | 1012.5 hPa | 0 mm | 2.68 m/s, 38° | 96 W/m² | - |
| 1778011651 | 11.67° C | 10% | 1012.3 hPa | 0 mm | 4.92 m/s, 48° | 111 W/m² | - |
| 1778011348 | 12.22° C | 10% | 1012.4 hPa | 0 mm | 4.02 m/s, 42° | 120 W/m² | - |
| 1778011043 | 12.78° C | 10% | 1012.3 hPa | 0 mm | 2.24 m/s, 51° | 81 W/m² | - |
| 1778010741 | 13.89° C | 10% | 1012.2 hPa | 0 mm | 3.13 m/s, 27° | 83 W/m² | - |
| 1778010438 | 14.44° C | 10% | 1012.3 hPa | 0 mm | 3.58 m/s, 120° | 107 W/m² | - |
| 1778010134 | 13.89° C | 10% | 1012.3 hPa | 0 mm | 1.34 m/s, 131° | 121 W/m² | - |
| 1778009830 | 14.44° C | 10% | 1012 hPa | 0 mm | 3.13 m/s, 128° | 136 W/m² | - |
| 1778009528 | 14.44° C | 10% | 1011.8 hPa | 0 mm | 1.34 m/s, 149° | 138 W/m² | - |
| 1778009226 | 14.44° C | 10% | 1011.8 hPa | 0 mm | 1.34 m/s, 167° | 165 W/m² | - |
| 1778008923 | 14.44° C | 10% | 1011.7 hPa | 0 mm | 2.24 m/s, 168° | 211 W/m² | - |
| 1778008622 | 14.44° C | 10% | 1011.8 hPa | 0 mm | 2.24 m/s, 140° | 189 W/m² | - |
| 1778008319 | 14.44° C | 10% | 1011.7 hPa | 0 mm | 2.68 m/s, 200° | 236 W/m² | - |
| 1778008015 | 14.44° C | 10% | 1011.8 hPa | 0 mm | 1.79 m/s, 110° | 213 W/m² | - |
| 1778007715 | 14.44° C | 10% | 1011.7 hPa | 0 mm | 4.02 m/s, 192° | 254 W/m² | - |
| 1778007412 | 14.44° C | 10% | 1011.7 hPa | 0 mm | 3.58 m/s, 167° | 219 W/m² | - |
| 1778007108 | 14.44° C | 10% | 1011.6 hPa | 0 mm | 2.24 m/s, 178° | 225 W/m² | - |
| 1778006805 | 14.44° C | 10% | 1011.3 hPa | 0 mm | 2.24 m/s, 162° | 218 W/m² | - |
| 1778006502 | 13.89° C | 10% | 1011.5 hPa | 0 mm | 3.13 m/s, 137° | 199 W/m² | - |
| 1778006199 | 13.89° C | 10% | 1011.5 hPa | 0 mm | 4.02 m/s, 159° | 195 W/m² | - |
| 1778005897 | 13.89° C | 10% | 1011.5 hPa | 0 mm | 3.58 m/s, 199° | 244 W/m² | - |
| 1778005592 | 13.89° C | 10% | 1011.6 hPa | 0 mm | 5.81 m/s, 178° | 293 W/m² | - |
| 1778005290 | 13.89° C | 10% | 1011.4 hPa | 0 mm | 4.92 m/s, 127° | 282 W/m² | - |
| 1778004986 | 13.89° C | 10% | 1011.7 hPa | 0 mm | 4.02 m/s, 130° | 235 W/m² | - |
* Rain latest hour (hover to see other rain measurements)
** Current wind speed in m/s (hover to see current wind gust speed)